Aérodrome :







RETROUVEZ-NOUS SUR...

 
LOGIN :

S'inscrire | Disclaimer

   EN    FR    IT 

 









Légende :    VFR   VFR Marginal   IFR   IFR Intensif   IFR Très Intensif
Visi : 
Plafond : 
>= 8 km
>= 3000ft
5 à 8 km
1000 à 3000 ft
1500m à 5 km
500 à 1000 ft
800 à 1500m
200 à 500 ft
< 800m
< 200 ft
Symboles :   Orages  Brouillard  Fortes neiges  Fortes précipitations  Vent > 20 kt






- Altitude de l'aérodrome : 603 ft
- Code IATA : LEB


KLEB - Lebanon Municipal

DERNIER METAR :
  • 231853Z 22007KT 10SM CLR 09/M04 A3000 RMK AO2 SLP168 T00941044 $

METARs EXPIRÉS :
  • 231753Z 00000KT 10SM CLR 09/M05 A3002 RMK AO2 SLP175 T00891050 10089 21139 58029 $
  • 231653Z 00000KT 10SM CLR 07/M05 A3006 RMK AO2 SLP186 T00721050 $

TAF KLEB
Valide du 23 à 18h jusqu'au 24 à 18h UTC


231731Z 2318/2418 23005KT P6SM FEW250



MET'MAP, la Météo Aéronautique d'un coup d'oeil ! - Copyright ORBIFLY Décembre 2007 - Disclaimer

ORBIFLY MET'MAP TEAM :

Programmation & Développement : Alexandra Zaïnal
Sur une idée originale de : Baudouin d'Aumeries
Assistance à la programmation : Marc-Olivier Méhu
Soutien technique & logistique : Manuel Goepfert

Contact : metmap@orbifly.com




SOURCES & CREDITS :

   NOAA